ADDS METAR Data INFO
IDs: Format: Raw Decoded Include TAF

Data at: 1935 UTC 16 Aug 2017

KBAZ 161851Z 16011G19KT 10SM FEW049 36/22 A2993 RMK AO2 SLP125 T03560217
KBAZ 161751Z 18013G19KT 10SM BKN044 34/22 A2996 RMK AO2 SLP133 T03390217 10350 20256 58003
KBAZ 161651Z 19014G20KT 10SM BKN038 32/22 A2996 RMK AO2 SLP136 T03220217
KBAZ 161551Z 20015KT 10SM CLR 32/22 A2996 RMK AO2 SLP135 T03170222
KBAZ 161451Z 20012KT 10SM FEW023 SCT033 29/23 A2996 RMK AO2 SLP137 T02940228 51009
KBAZ 161351Z 20013KT 10SM BKN021 OVC028 28/23 A2996 RMK AO2 SLP134 T02830233
KBAZ 161251Z 17006KT 10SM BKN026 BKN032 BKN075 27/24 A2994 RMK AO2 SLP128 T02670244
KBAZ 161234Z 16005KT 10SM SCT025 BKN030 26/24 A2993 RMK AO2 T02610239
KBAZ 161151Z 17006KT 10SM FEW021 BKN029 26/24 A2992 RMK AO2 SLP122 T02560239 10278 20256 53009
KBAZ 161108Z AUTO 18006KT 10SM FEW013 BKN020 BKN027 26/24 A2991 RMK AO2 T02610239
KBAZ 161051Z AUTO 18008KT 10SM FEW017 SCT028 BKN032 26/24 A2990 RMK AO2 SLP116 T02610239
KBAZ 161022Z AUTO 17011KT 10SM FEW023 SCT029 SCT034 26/24 A2989 RMK AO2 T02610244
KBAZ 161003Z AUTO 16009KT 10SM FEW012 SCT022 BKN029 26/24 A2989 RMK AO2 T02610244
KBAZ 160951Z AUTO 19006KT 10SM SCT013 SCT020 BKN030 26/24 A2989 RMK AO2 SLP111 T02560244
KBAZ 160912Z AUTO 18009KT 10SM SCT012 SCT024 26/24 A2989 RMK AO2 T02610244
KBAZ 160851Z AUTO 17009KT 10SM BKN011 26/24 A2990 RMK AO2 SLP112 T02610244 58001
KBAZ 160751Z AUTO 18011KT 10SM OVC014 27/24 A2990 RMK AO2 SLP114 T02720244
KBAZ 160731Z AUTO 18013KT 10SM OVC014 27/24 A2990 RMK AO2 T02720244
KBAZ 160651Z AUTO 18011KT 10SM OVC017 28/24 A2991 RMK AO2 SLP118 T02780239
KBAZ 160551Z AUTO 18010KT 10SM BKN017 27/24 A2990 RMK AO2 SLP113 T02720239 10350 20272 403720233 51003
KBAZ 160547Z AUTO 18011KT 10SM BKN017 27/24 A2990 RMK AO2
KBAZ 160451Z AUTO 17012KT 10SM CLR 28/23 A2989 RMK AO2 SLP112 T02780233
KBAZ 160351Z AUTO 16012KT 10SM CLR 29/23 A2989 RMK AO2 SLP111 T02890228
KBAZ 160251Z AUTO 15016KT 10SM CLR 30/23 A2987 RMK AO2 SLP104 T03000228 53028
KBAZ 160151Z AUTO 15013KT 10SM CLR 31/22 A2983 RMK AO2 SLP090 T03110222
KBAZ 160051Z AUTO 14017G23KT 10SM CLR 33/22 A2980 RMK AO2 SLP081 T03280217
KBAZ 152351Z AUTO 14017KT 10SM FEW060 35/21 A2978 RMK AO2 SLP075 T03500206 10372 20328 55007
KBAZ 152251Z 15018KT 10SM SCT070 37/20 A2977 RMK AO2 SLP071 T03670200
KBAZ 152151Z 20011G20KT 10SM FEW060 37/20 A2978 RMK AO2 SLP073 T03720200
KBAZ 152051Z 16014KT 10SM FEW060 36/21 A2981 RMK AO2 SLP082 T03610206 57024
KBAZ 151951Z 19011G19KT 10SM FEW055 37/22 A2983 RMK AO2 SLP089 T03670217
KBAZ 151851Z 18011G18KT 10SM FEW046 36/22 A2986 RMK AO2 SLP099 T03560217
KBAZ 151751Z 20011G17KT 6SM HZ SCT042 34/22 A2988 RMK AO2 SLP107 T03440222 10344 20239 58006
KBAZ 151651Z 22010KT 10SM FEW033 31/23 A2990 RMK AO2 SLP114 T03110228
KBAZ 151605Z 17008G17KT 10SM SCT025 SCT032 32/23 A2990 RMK AO2 T03170228
KBAZ 151551Z 21013KT 10SM BKN025 BKN032 31/23 A2990 RMK AO2 SLP116 T03110228
KBAZ 151451Z 21011KT 10SM BKN018 BKN024 28/23 A2990 RMK AO2 SLP113 T02780228 51010
KBAZ 151419Z 19009KT 10SM OVC016 27/23 A2989 RMK AO2 T02720233
KBAZ 151351Z 19009KT 10SM BKN013 OVC020 26/23 A2989 RMK AO2 SLP113 T02610233
KBAZ 151259Z 19004KT 8SM BKN010 OVC017 25/24 A2989 RMK AO2 T02500239
KBAZ 151251Z 21003KT 8SM FEW010 OVC017 25/24 A2989 RMK AO2 SLP110 T02500239
KBAZ 151151Z 22004KT 7SM BKN017 24/23 A2986 RMK AO2 SLP103 T02390228 10267 20233 53002
KBAZ 151147Z AUTO 21004KT 7SM BKN017 24/23 A2986 RMK AO2
KBAZ 151111Z AUTO 20005KT 9SM SCT008 SCT018 24/23 A2985 RMK AO2 T02440228
KBAZ 151051Z AUTO 20007KT 10SM OVC009 24/23 A2986 RMK AO2 SLP100 T02440233
KBAZ 151015Z AUTO 19007KT 10SM BKN011 BKN019 25/23 A2985 RMK AO2 T02500233
KBAZ 151001Z AUTO 20007KT 10SM SCT013 BKN019 25/23 A2985 RMK AO2 T02500233
KBAZ 150951Z AUTO 21008KT 10SM BKN012 OVC019 25/23 A2985 RMK AO2 SLP098 T02500233
KBAZ 150851Z AUTO 20007KT 10SM OVC013 26/23 A2985 RMK AO2 SLP096 T02560233 58004
KBAZ 150823Z AUTO 18007KT 10SM BKN013 26/23 A2985 RMK AO2 T02560233
KBAZ 150751Z AUTO 17010KT 10SM FEW015 26/23 A2985 RMK AO2 SLP098 T02560233